Time;durP1;ratioP1;P1;durP2;ratioP2;P2;SDS_P1;SDS_P2;PMS_P1;PMS_P2;Temp;Humidity;BMP_temperature;BMP_pressure;BME280_temperature;BME280_humidity;BME280_pressure;Samples;Min_cycle;Max_cycle;Signal;HPM_P1;HPM_P2
2022/03/03 00:00:47;;;;;;;25.45;16.00;;;;;;;-1.20;100.00;100932.41;5031567;28;20124;-64
2022/03/03 00:03:12;;;;;;;25.70;15.57;;;;;;;-1.25;100.00;100936.69;5030515;28;20020;-64
2022/03/03 00:05:38;;;;;;;30.92;16.70;;;;;;;-1.30;100.00;100921.19;5028474;28;20821;-64
2022/03/03 00:08:03;;;;;;;20.48;15.50;;;;;;;-1.31;100.00;100924.59;5028536;28;20043;-63
2022/03/03 00:10:29;;;;;;;24.15;16.58;;;;;;;-1.25;100.00;100927.22;5023767;28;20187;-63
2022/03/03 00:12:54;;;;;;;25.15;17.25;;;;;;;-1.19;100.00;100924.69;5042493;28;20098;-63
2022/03/03 00:15:20;;;;;;;27.92;18.30;;;;;;;-1.16;100.00;100914.41;5039010;28;20802;-64
2022/03/03 00:17:45;;;;;;;27.38;18.05;;;;;;;-1.13;100.00;100916.97;5012233;28;20082;-64
2022/03/03 00:20:11;;;;;;;26.67;17.10;;;;;;;-1.18;100.00;100908.34;5033459;28;20052;-63
2022/03/03 00:22:36;;;;;;;23.17;16.00;;;;;;;-1.25;100.00;100919.47;5032794;28;20025;-64
2022/03/03 00:25:02;;;;;;;20.88;16.17;;;;;;;-1.35;100.00;100916.84;5029770;28;20035;-63
2022/03/03 00:27:28;;;;;;;22.33;16.05;;;;;;;-1.42;100.00;100913.34;5033841;28;20104;-64
2022/03/03 00:29:53;;;;;;;27.55;17.33;;;;;;;-1.45;100.00;100913.34;5021642;28;20940;-64
2022/03/03 00:32:18;;;;;;;27.08;16.98;;;;;;;-1.47;100.00;100909.91;5019619;28;20027;-63
2022/03/03 00:34:44;;;;;;;24.13;17.58;;;;;;;-1.42;100.00;100920.25;5044825;28;20379;-63
2022/03/03 00:37:09;;;;;;;25.83;16.13;;;;;;;-1.45;100.00;100910.75;5034765;28;20099;-63
2022/03/03 00:39:35;;;;;;;26.70;17.23;;;;;;;-1.51;100.00;100910.72;5037220;28;20024;-64
2022/03/03 00:42:00;;;;;;;21.27;16.83;;;;;;;-1.51;100.00;100915.88;5045917;28;20135;-63
2022/03/03 00:44:25;;;;;;;23.98;17.02;;;;;;;-1.62;100.00;100896.91;5044169;28;20418;-64
2022/03/03 00:46:51;;;;;;;28.23;18.30;;;;;;;-1.61;100.00;100909.81;5045190;28;20028;-64
2022/03/03 00:49:16;;;;;;;24.40;17.58;;;;;;;-1.65;100.00;100913.19;5027787;28;20025;-64
2022/03/03 00:51:41;;;;;;;33.00;18.80;;;;;;;-1.66;100.00;100911.50;5035043;28;20061;-63
2022/03/03 00:54:07;;;;;;;25.17;17.33;;;;;;;-1.67;100.00;100906.31;5043700;28;20025;-63
2022/03/03 00:56:33;;;;;;;22.00;17.25;;;;;;;-1.70;100.00;100904.59;5046003;28;20448;-64
2022/03/03 00:58:58;;;;;;;26.77;18.02;;;;;;;-1.73;100.00;100901.13;5028124;28;20036;-63
2022/03/03 01:01:24;;;;;;;27.90;17.83;;;;;;;-1.69;100.00;100906.28;5033541;28;20028;-63
2022/03/03 01:03:49;;;;;;;25.88;17.65;;;;;;;-1.66;100.00;100911.50;5032499;28;20036;-64
2022/03/03 01:06:15;;;;;;;27.70;17.38;;;;;;;-1.69;100.00;100915.75;5042066;28;20017;-64
2022/03/03 01:08:40;;;;;;;24.60;17.13;;;;;;;-1.68;100.00;100912.31;5014100;28;20028;-64
2022/03/03 01:11:06;;;;;;;28.95;18.35;;;;;;;-1.74;100.00;100902.84;5035577;28;20037;-62
2022/03/03 01:13:32;;;;;;;32.28;19.20;;;;;;;-1.78;100.00;100900.22;5038644;28;20086;-64
2022/03/03 01:15:57;;;;;;;21.13;16.15;;;;;;;-1.80;100.00;100896.78;5045891;28;20061;-63
2022/03/03 01:18:23;;;;;;;25.95;17.88;;;;;;;-1.81;100.00;100905.34;5045173;28;20111;-62
2022/03/03 01:20:49;;;;;;;25.80;17.25;;;;;;;-1.84;100.00;100905.31;5037081;28;20056;-62
2022/03/03 01:23:14;;;;;;;25.13;18.88;;;;;;;-1.87;100.00;100900.16;5042126;28;20276;-62
2022/03/03 01:25:40;;;;;;;28.80;18.60;;;;;;;-1.90;100.00;100892.41;5045755;28;20033;-62
2022/03/03 01:28:05;;;;;;;32.78;18.15;;;;;;;-1.87;100.00;100900.16;5034463;28;20770;-62
2022/03/03 01:30:30;;;;;;;25.25;17.80;;;;;;;-1.88;100.00;100898.44;5044690;28;20100;-64
2022/03/03 01:32:56;;;;;;;27.50;18.75;;;;;;;-1.95;100.00;100894.94;5040717;28;20024;-64
2022/03/03 01:35:21;;;;;;;29.58;18.45;;;;;;;-2.17;100.00;100865.59;5039649;28;20035;-64
2022/03/03 01:37:47;;;;;;;26.60;17.98;;;;;;;-1.98;100.00;100897.50;5030593;28;20134;-64
2022/03/03 01:40:13;;;;;;;30.52;18.48;;;;;;;-1.97;100.00;100895.78;5038218;28;20029;-64
2022/03/03 01:42:38;;;;;;;32.50;19.10;;;;;;;-1.99;100.00;100888.03;5039310;28;20021;-64
2022/03/03 01:45:04;;;;;;;23.65;17.83;;;;;;;-1.98;100.00;100887.19;5026496;28;20250;-64
2022/03/03 01:47:30;;;;;;;26.02;18.08;;;;;;;-1.95;100.00;100884.63;5026950;28;20048;-64
2022/03/03 01:49:57;;;;;;;27.45;19.33;;;;;;;-1.95;100.00;100881.19;5037070;28;20128;-64
2022/03/03 01:52:23;;;;;;;28.52;19.25;;;;;;;-1.94;100.00;100873.50;5033418;28;20952;-63
2022/03/03 01:54:49;;;;;;;31.92;18.73;;;;;;;-1.89;100.00;100881.28;5026953;28;20021;-64
2022/03/03 01:57:19;;;;;;;25.90;18.58;;;;;;;-1.94;100.00;100878.66;5035095;28;20048;-64
2022/03/03 01:59:44;;;;;;;30.33;19.13;;;;;;;-1.97;100.00;100875.19;5017362;28;20114;-64
2022/03/03 02:02:10;;;;;;;25.08;17.77;;;;;;;-2.03;100.00;100859.69;5004870;28;20111;-66
2022/03/03 02:04:39;;;;;;;28.75;18.33;;;;;;;-2.01;100.00;100876.88;4997656;28;20064;-64
2022/03/03 02:07:06;;;;;;;24.95;17.50;;;;;;;-2.19;100.00;100856.97;5007482;28;20499;-62
2022/03/03 02:09:31;;;;;;;26.02;18.10;;;;;;;-2.18;100.00;100881.00;5011948;28;20083;-62
2022/03/03 02:11:57;;;;;;;28.08;18.42;;;;;;;-2.23;100.00;100875.81;4990353;28;20927;-62
2022/03/03 02:14:22;;;;;;;27.20;18.15;;;;;;;-2.23;100.00;100864.69;4990930;28;20906;-62
2022/03/03 02:16:48;;;;;;;26.17;18.17;;;;;;;-2.25;100.00;100859.50;5009159;28;20056;-63
2022/03/03 02:19:18;;;;;;;27.20;19.33;;;;;;;-2.31;100.00;100846.59;5011565;28;20025;-62
2022/03/03 02:21:46;;;;;;;22.42;17.60;;;;;;;-2.27;100.00;100848.34;5004618;28;20787;-62
2022/03/03 02:24:11;;;;;;;22.00;16.90;;;;;;;-2.26;100.00;100850.06;5021234;28;20128;-62
2022/03/03 02:26:39;;;;;;;23.48;16.80;;;;;;;-2.28;100.00;100846.63;5007884;28;20094;-62
2022/03/03 02:29:04;;;;;;;26.10;17.90;;;;;;;-2.32;100.00;100837.16;5012017;28;20052;-62
2022/03/03 02:31:30;;;;;;;28.70;18.92;;;;;;;-2.33;100.00;100837.16;5005673;28;20095;-62
2022/03/03 02:33:57;;;;;;;26.65;18.85;;;;;;;-2.39;100.00;100843.09;5022612;28;20030;-62
2022/03/03 02:36:29;;;;;;;25.90;16.90;;;;;;;-2.41;100.00;100839.66;5025005;28;20932;-62
2022/03/03 02:38:56;;;;;;;29.27;18.55;;;;;;;-2.39;100.00;100837.94;5023951;28;20060;-62
2022/03/03 02:41:23;;;;;;;24.65;17.55;;;;;;;-2.39;100.00;100830.22;5019667;28;20025;-63
2022/03/03 02:43:49;;;;;;;28.13;19.50;;;;;;;-2.39;100.00;100837.06;5010011;28;20025;-62
2022/03/03 02:46:14;;;;;;;31.00;19.40;;;;;;;-2.39;100.00;100832.78;5017333;28;20403;-62
2022/03/03 02:48:40;;;;;;;26.17;18.13;;;;;;;-2.44;100.00;100825.91;5027392;28;20526;-62
2022/03/03 02:51:06;;;;;;;29.08;17.77;;;;;;;-2.45;100.00;100822.44;5024967;28;20033;-63
2022/03/03 02:53:32;;;;;;;27.75;18.02;;;;;;;-2.48;100.00;100816.41;5010962;28;20037;-63
2022/03/03 02:55:57;;;;;;;24.65;18.65;;;;;;;-2.50;100.00;100815.56;5027831;28;20029;-62
2022/03/03 02:58:23;;;;;;;27.92;19.05;;;;;;;-2.50;100.00;100818.97;5028787;28;20040;-62
2022/03/03 03:00:48;;;;;;;21.63;16.67;;;;;;;-2.58;100.00;100811.19;5026464;28;20025;-62
2022/03/03 03:03:15;;;;;;;27.80;18.88;;;;;;;-2.64;100.00;100800.00;5019701;28;20927;-62
2022/03/03 03:05:41;;;;;;;26.17;17.88;;;;;;;-2.63;100.00;100809.41;5008546;28;20037;-63
2022/03/03 03:08:06;;;;;;;24.33;17.80;;;;;;;-2.63;100.00;100814.56;5011766;28;20094;-62
2022/03/03 03:10:32;;;;;;;26.85;18.20;;;;;;;-2.64;100.00;100816.25;5024359;28;20064;-62
2022/03/03 03:12:57;;;;;;;23.90;17.48;;;;;;;-2.66;100.00;100811.97;5017709;28;20021;-62
2022/03/03 03:15:23;;;;;;;25.08;17.30;;;;;;;-2.65;100.00;100813.69;5005906;28;20857;-63
2022/03/03 03:17:49;;;;;;;30.98;20.02;;;;;;;-2.66;100.00;100817.09;5008102;28;20029;-62
2022/03/03 03:20:14;;;;;;;30.00;17.98;;;;;;;-2.70;100.00;100826.50;5022396;28;20029;-63
2022/03/03 03:22:40;;;;;;;30.75;18.80;;;;;;;-2.71;100.00;100819.66;5012682;28;20029;-62
2022/03/03 03:25:08;;;;;;;26.35;19.15;;;;;;;-2.68;100.00;100817.09;5013002;28;20139;-63
2022/03/03 03:27:34;;;;;;;24.38;19.05;;;;;;;-2.67;100.00;100813.66;5007831;28;20031;-63
2022/03/03 03:30:00;;;;;;;24.48;17.63;;;;;;;-2.67;100.00;100805.13;5012284;28;20030;-63
2022/03/03 03:32:25;;;;;;;27.38;19.52;;;;;;;-2.72;100.00;100801.63;5014439;28;20936;-62
2022/03/03 03:34:50;;;;;;;28.25;19.42;;;;;;;-2.74;100.00;100801.59;5015209;28;20025;-62
2022/03/03 03:37:16;;;;;;;31.38;19.15;;;;;;;-2.72;100.00;100792.19;5015562;28;20089;-62
2022/03/03 03:39:42;;;;;;;26.70;18.38;;;;;;;-2.69;100.00;100793.94;5029138;28;20425;-62
2022/03/03 03:42:08;;;;;;;25.73;18.92;;;;;;;-2.74;100.00;100799.03;5012233;28;20878;-62
2022/03/03 03:44:34;;;;;;;28.88;19.27;;;;;;;-2.81;100.00;100797.25;5012508;28;20033;-63
2022/03/03 03:46:59;;;;;;;24.88;18.63;;;;;;;-2.78;100.00;100804.13;5024023;28;20422;-63
2022/03/03 03:49:25;;;;;;;29.63;19.65;;;;;;;-2.81;100.00;100802.41;5020594;28;20037;-63
2022/03/03 03:51:50;;;;;;;29.67;18.25;;;;;;;-2.83;100.00;100803.22;5015866;28;20025;-63
2022/03/03 03:54:16;;;;;;;33.65;17.92;;;;;;;-2.88;100.00;100799.75;5015875;28;20800;-63
2022/03/03 03:56:41;;;;;;;25.40;17.90;;;;;;;-2.92;100.00;100803.13;5009854;28;20033;-63
2022/03/03 03:59:06;;;;;;;24.10;18.65;;;;;;;-2.91;100.00;100799.72;5027310;28;20017;-62
2022/03/03 04:01:32;;;;;;;32.30;20.15;;;;;;;-2.93;100.00;100791.13;5024770;28;20139;-63
2022/03/03 04:03:57;;;;;;;29.35;21.20;;;;;;;-2.88;100.00;100786.91;5007051;28;20483;-63
2022/03/03 04:06:23;;;;;;;34.40;21.63;;;;;;;-2.80;100.00;100774.97;5010667;28;20033;-63
2022/03/03 04:08:48;;;;;;;32.85;21.40;;;;;;;-2.61;100.00;100784.59;5029430;28;20037;-63
2022/03/03 04:11:13;;;;;;;28.80;19.40;;;;;;;-2.72;100.00;100755.34;5020139;28;20026;-63
2022/03/03 04:13:39;;;;;;;28.45;19.90;;;;;;;-2.63;100.00;100775.97;5022143;28;20064;-63
2022/03/03 04:16:05;;;;;;;30.77;20.27;;;;;;;-2.71;100.00;100772.50;5031339;28;20538;-63
2022/03/03 04:18:30;;;;;;;29.70;20.02;;;;;;;-2.79;100.00;100772.41;5028715;28;20029;-63
2022/03/03 04:20:56;;;;;;;29.70;20.08;;;;;;;-2.77;100.00;100775.03;5027903;28;20117;-63
2022/03/03 04:23:22;;;;;;;28.65;20.25;;;;;;;-2.88;100.00;100771.47;5022802;28;20041;-63
2022/03/03 04:25:47;;;;;;;29.42;18.77;;;;;;;-2.97;100.00;100773.97;5025247;28;20030;-62
2022/03/03 04:28:13;;;;;;;30.88;18.98;;;;;;;-3.00;100.00;100779.03;5025649;28;20123;-64
2022/03/03 04:30:38;;;;;;;28.25;18.65;;;;;;;-3.05;100.00;100775.56;5028234;28;20025;-63
2022/03/03 04:33:03;;;;;;;29.30;19.98;;;;;;;-3.06;100.00;100778.97;5023838;28;20124;-63
2022/03/03 04:35:29;;;;;;;32.00;20.90;;;;;;;-3.05;100.00;100767.88;5017052;28;20041;-63
2022/03/03 04:37:55;;;;;;;26.40;19.92;;;;;;;-3.05;100.00;100770.44;5018494;28;20030;-63
2022/03/03 04:40:20;;;;;;;24.73;18.58;;;;;;;-3.13;100.00;100763.50;5021806;28;20025;-62
2022/03/03 04:42:46;;;;;;;35.00;20.52;;;;;;;-3.16;100.00;100757.47;5032349;28;20033;-64
2022/03/03 04:45:11;;;;;;;27.20;19.27;;;;;;;-3.15;100.00;100762.63;5027013;28;20037;-62
2022/03/03 04:47:37;;;;;;;28.27;19.90;;;;;;;-3.15;100.00;100762.63;5021827;28;20467;-62
2022/03/03 04:50:03;;;;;;;28.77;20.67;;;;;;;-3.13;100.00;100755.78;5022229;28;20087;-62
2022/03/03 04:52:29;;;;;;;31.23;20.15;;;;;;;-3.12;100.00;100752.41;5029410;28;20050;-63
2022/03/03 04:54:54;;;;;;;26.83;20.52;;;;;;;-3.08;100.00;100750.72;5032929;28;20025;-64
2022/03/03 04:57:20;;;;;;;26.10;19.42;;;;;;;-3.16;100.00;100742.91;5038485;28;20217;-62
2022/03/03 04:59:45;;;;;;;28.40;19.42;;;;;;;-3.14;100.00;100745.50;5029832;28;20076;-62
2022/03/03 05:02:10;;;;;;;27.25;18.83;;;;;;;-3.17;100.00;100743.75;5024898;28;20043;-62
2022/03/03 05:04:36;;;;;;;30.85;19.05;;;;;;;-3.19;100.00;100748.03;5025536;28;20021;-62
2022/03/03 05:07:01;;;;;;;31.05;21.10;;;;;;;-3.16;100.00;100744.63;5018680;28;20013;-62
2022/03/03 05:09:27;;;;;;;28.15;18.10;;;;;;;-3.16;100.00;100742.91;5024863;28;20039;-62
2022/03/03 05:11:52;;;;;;;28.25;19.40;;;;;;;-3.07;100.00;100744.72;5013041;28;20037;-62
2022/03/03 05:14:17;;;;;;;32.00;20.65;;;;;;;-3.02;100.00;100744.75;4996462;28;20811;-63
2022/03/03 05:16:43;;;;;;;33.08;20.90;;;;;;;-2.97;100.00;100741.38;5033567;28;20144;-62
2022/03/03 05:19:08;;;;;;;31.50;20.55;;;;;;;-2.91;100.00;100743.16;5029038;28;20482;-62
2022/03/03 05:21:33;;;;;;;29.02;19.83;;;;;;;-2.83;100.00;100736.38;5024247;28;20033;-62
2022/03/03 05:23:59;;;;;;;29.08;20.88;;;;;;;-2.78;100.00;100733.03;5027224;28;20033;-62
2022/03/03 05:26:25;;;;;;;30.70;21.02;;;;;;;-2.72;100.00;100743.34;5011497;28;20098;-62
2022/03/03 05:28:50;;;;;;;34.30;21.10;;;;;;;-2.75;100.00;100739.88;5014046;28;20037;-62
2022/03/03 05:31:16;;;;;;;32.20;20.25;;;;;;;-2.82;100.00;100738.97;5029676;28;20021;-63
2022/03/03 05:33:41;;;;;;;33.08;20.45;;;;;;;-2.79;100.00;100749.28;5024368;28;20033;-63
2022/03/03 05:36:09;;;;;;;31.05;20.65;;;;;;;-2.81;100.00;100752.69;5020957;28;20033;-62
2022/03/03 05:38:34;;;;;;;40.42;20.65;;;;;;;-2.81;100.00;100751.00;5027184;28;20030;-63
2022/03/03 05:41:01;;;;;;;29.48;19.42;;;;;;;-2.82;100.00;100749.25;5023009;28;20512;-62
2022/03/03 05:43:27;;;;;;;29.33;18.77;;;;;;;-2.87;100.00;100745.75;5029339;28;20428;-63
2022/03/03 05:45:53;;;;;;;31.17;19.00;;;;;;;-2.88;100.00;100744.06;5029376;28;20112;-63
2022/03/03 05:48:19;;;;;;;35.35;19.75;;;;;;;-2.91;100.00;100748.31;5030483;28;20468;-63
2022/03/03 05:50:46;;;;;;;29.58;19.15;;;;;;;-2.96;100.00;100744.81;5028847;28;20207;-63
2022/03/03 05:53:11;;;;;;;29.92;19.95;;;;;;;-3.06;100.00;100743.00;5027319;28;20032;-62
2022/03/03 05:55:46;;;;;;;26.10;19.10;;;;;;;-3.06;100.00;100743.00;5033610;28;20029;-62
2022/03/03 05:58:15;;;;;;;35.72;20.20;;;;;;;-3.10;100.00;100737.84;5035119;28;20044;-63
2022/03/03 06:00:45;;;;;;;30.25;19.77;;;;;;;-3.12;100.00;100731.84;5031133;28;20035;-63
2022/03/03 06:03:17;;;;;;;28.92;19.73;;;;;;;-3.08;100.00;100741.28;5030274;28;20037;-62
2022/03/03 06:05:46;;;;;;;29.33;18.77;;;;;;;-3.08;100.00;100735.31;5031388;28;20022;-62
2022/03/03 06:08:16;;;;;;;29.42;19.88;;;;;;;-3.08;100.00;100737.88;5031864;28;20020;-62
2022/03/03 06:10:46;;;;;;;33.78;20.27;;;;;;;-3.11;100.00;100725.84;5033812;28;20033;-62
2022/03/03 06:13:12;;;;;;;29.55;18.33;;;;;;;-3.10;100.00;100737.84;5029005;28;20014;-62
2022/03/03 06:15:37;;;;;;;37.85;19.80;;;;;;;-3.18;100.00;100724.03;5027739;28;20033;-62
2022/03/03 06:18:03;;;;;;;27.42;19.40;;;;;;;-3.13;100.00;100737.81;5034778;28;20327;-64
2022/03/03 06:20:30;;;;;;;29.05;19.90;;;;;;;-3.13;100.00;100735.25;5032912;28;20430;-62
2022/03/03 06:22:56;;;;;;;26.90;18.17;;;;;;;-3.08;100.00;100740.44;5031364;28;20393;-62
2022/03/03 06:25:21;;;;;;;31.40;19.23;;;;;;;-3.01;100.00;100746.50;5034837;28;20033;-62
2022/03/03 06:27:46;;;;;;;28.90;19.05;;;;;;;-2.97;100.00;100748.25;5023242;28;20017;-62
2022/03/03 06:30:12;;;;;;;29.88;19.73;;;;;;;-2.97;100.00;100748.25;5031457;28;20195;-64
2022/03/03 06:32:37;;;;;;;29.95;19.48;;;;;;;-2.95;100.00;100741.41;5005609;28;20021;-64
2022/03/03 06:35:03;;;;;;;31.13;20.17;;;;;;;-2.93;100.00;100745.72;5032694;28;20471;-64
2022/03/03 06:37:29;;;;;;;31.67;19.67;;;;;;;-2.90;100.00;100734.59;5029686;28;20060;-61
2022/03/03 06:39:55;;;;;;;30.38;19.10;;;;;;;-2.86;100.00;100744.06;5038173;28;20096;-61
2022/03/03 06:42:20;;;;;;;32.67;19.38;;;;;;;-2.81;100.00;100734.69;5045469;28;20063;-62
2022/03/03 06:44:45;;;;;;;32.55;20.08;;;;;;;-2.73;100.00;100725.31;5043923;28;20024;-62
2022/03/03 06:47:11;;;;;;;29.85;19.73;;;;;;;-2.64;100.00;100738.28;5050482;28;20028;-61
2022/03/03 06:49:36;;;;;;;30.77;19.58;;;;;;;-2.62;100.00;100741.72;5045621;28;20038;-63
2022/03/03 06:52:03;;;;;;;30.38;19.10;;;;;;;-2.67;100.00;100733.94;5036700;28;20506;-64
2022/03/03 06:54:31;;;;;;;29.90;19.45;;;;;;;-2.60;100.00;100735.72;5054134;28;20380;-62
2022/03/03 06:56:57;;;;;;;28.48;17.77;;;;;;;-2.57;100.00;100746.03;5054461;28;20128;-64
2022/03/03 06:59:33;;;;;;;29.25;19.23;;;;;;;-2.59;100.00;100745.19;5054183;28;20060;-63
2022/03/03 07:01:59;;;;;;;27.75;18.73;;;;;;;-2.57;100.00;100752.91;5054315;28;20067;-64
2022/03/03 07:04:26;;;;;;;30.67;19.40;;;;;;;-2.50;100.00;100751.25;5053520;28;20527;-64
2022/03/03 07:06:52;;;;;;;31.73;20.45;;;;;;;-2.45;100.00;100755.56;5052088;28;20023;-63
2022/03/03 07:09:19;;;;;;;32.08;20.20;;;;;;;-2.43;100.00;100743.56;5053434;28;20029;-63
2022/03/03 07:11:45;;;;;;;28.85;19.10;;;;;;;-2.34;100.00;100747.94;5014235;28;20132;-62
2022/03/03 07:14:12;;;;;;;28.10;18.42;;;;;;;-2.28;100.00;100754.00;5008397;28;20168;-62
2022/03/03 07:16:43;;;;;;;32.53;19.60;;;;;;;-2.20;100.00;100760.03;5011585;28;20092;-65
2022/03/03 07:19:17;;;;;;;34.92;20.55;;;;;;;-2.27;100.00;100732.56;5014501;28;20060;-63
2022/03/03 07:22:13;;;;;;;27.02;18.60;;;;;;;-2.04;100.00;100758.44;5012500;28;20025;-62
2022/03/03 07:24:46;;;;;;;31.08;20.38;;;;;;;-1.91;100.00;100767.09;5015456;28;20048;-62
2022/03/03 07:27:23;;;;;;;30.37;19.67;;;;;;;-2.00;100.00;100739.59;5005816;28;20020;-64
2022/03/03 07:30:00;;;;;;;27.70;18.20;;;;;;;-1.72;100.00;100764.63;5015715;28;20311;-63
2022/03/03 07:32:29;;;;;;;31.25;19.92;;;;;;;-1.58;100.00;100770.72;5021003;28;20145;-64
2022/03/03 07:34:59;;;;;;;39.65;19.27;;;;;;;-1.49;100.00;100774.19;5018176;28;20919;-63
2022/03/03 07:37:31;;;;;;;27.40;19.23;;;;;;;-1.38;100.00;100773.38;5018635;28;20044;-63
2022/03/03 07:40:01;;;;;;;31.23;19.05;;;;;;;-1.27;100.00;100774.28;5016468;28;20021;-63
2022/03/03 07:42:26;;;;;;;29.55;18.67;;;;;;;-1.14;100.00;100775.19;5008379;28;20463;-62
2022/03/03 07:44:52;;;;;;;27.90;18.42;;;;;;;-0.97;100.00;100780.38;5008134;28;20021;-63
2022/03/03 07:47:17;;;;;;;29.23;17.77;;;;;;;-0.86;100.00;100778.69;5010751;28;20021;-62
2022/03/03 07:49:45;;;;;;;26.77;17.00;;;;;;;-0.76;100.00;100781.31;5039154;28;20560;-63
2022/03/03 07:52:10;;;;;;;26.77;19.17;;;;;;;-0.63;100.00;100780.47;5036238;28;20053;-63
2022/03/03 07:54:36;;;;;;;26.25;17.80;;;;;;;-0.52;100.00;100770.16;5038815;28;20086;-63
2022/03/03 07:57:01;;;;;;;27.27;17.67;;;;;;;-0.42;100.00;100777.03;5040689;28;20043;-63
2022/03/03 07:59:36;;;;;;;22.23;17.00;;;;;;;-0.33;100.00;100773.56;5043928;28;20040;-63
2022/03/03 08:02:06;;;;;;;27.02;17.23;;;;;;;-0.27;100.00;100771.84;5042726;28;20025;-63
2022/03/03 08:04:33;;;;;;;28.52;17.63;;;;;;;-0.20;100.00;100768.41;5047813;28;20854;-63
2022/03/03 08:07:04;;;;;;;31.20;17.10;;;;;;;-0.11;100.00;100763.25;5047659;28;20044;-63
2022/03/03 08:09:31;;;;;;;24.42;16.63;;;;;;;-0.06;100.00;100760.66;5047933;28;20032;-63
2022/03/03 08:11:58;;;;;;;23.08;16.35;;;;;;;-0.01;100.00;100758.94;5047941;28;20116;-63
2022/03/03 08:14:24;;;;;;;28.75;17.30;;;;;;;0.05;100.00;100766.66;5046231;28;20479;-63
2022/03/03 08:16:50;;;;;;;27.02;17.67;;;;;;;0.14;100.00;100764.06;5044253;28;20024;-63
2022/03/03 08:19:17;;;;;;;22.25;15.68;;;;;;;0.21;100.00;100767.50;5044388;28;20454;-63
2022/03/03 08:21:46;;;;;;;27.02;15.52;;;;;;;0.30;100.00;100772.66;5046299;28;20028;-63
2022/03/03 08:24:12;;;;;;;24.00;17.65;;;;;;;0.38;100.00;100768.31;5044505;28;20040;-63
2022/03/03 08:26:39;;;;;;;25.00;17.88;;;;;;;0.48;100.00;100778.63;5047002;28;20559;-63
2022/03/03 08:29:04;;;;;;;25.08;17.67;;;;;;;0.60;100.00;100769.97;5045395;28;20033;-63
2022/03/03 08:31:37;;;;;;;24.15;16.23;;;;;;;0.70;100.00;100765.63;5046099;28;20131;-63
2022/03/03 08:34:12;;;;;;;29.27;17.57;;;;;;;0.82;100.00;100781.94;5043422;28;20029;-63
2022/03/03 08:36:47;;;;;;;27.60;17.58;;;;;;;0.92;100.00;100775.84;5047448;28;20295;-63
2022/03/03 08:39:15;;;;;;;22.50;16.30;;;;;;;0.98;100.00;100780.97;5050155;28;20021;-63
2022/03/03 08:41:42;;;;;;;28.85;19.15;;;;;;;1.17;100.00;100788.66;5051163;28;20047;-63
2022/03/03 08:44:08;;;;;;;30.42;18.67;;;;;;;1.26;100.00;100784.28;5051641;28;20476;-63
2022/03/03 08:46:38;;;;;;;26.98;18.67;;;;;;;1.31;100.00;100781.66;5051432;28;20079;-64
2022/03/03 08:49:06;;;;;;;24.92;17.58;;;;;;;1.42;100.00;100785.06;5051743;28;20027;-63
2022/03/03 08:51:32;;;;;;;30.48;16.63;;;;;;;1.50;100.00;100778.06;5051130;28;20025;-63
2022/03/03 08:53:57;;;;;;;25.65;16.85;;;;;;;1.63;100.00;100787.47;5051792;28;20079;-63
2022/03/03 08:56:23;;;;;;;28.67;17.10;;;;;;;1.78;100.00;100783.91;5051709;28;20064;-63
2022/03/03 08:58:49;;;;;;;27.95;17.85;;;;;;;1.76;100.00;100765.75;5052008;28;20017;-63
2022/03/03 09:01:15;;;;;;;21.45;15.82;;;;;;;1.94;100.00;100788.94;5050016;28;20378;-63
2022/03/03 09:03:43;;;;;;;21.77;15.27;;;;;;;1.98;100.00;100777.69;5051072;28;20140;-63
2022/03/03 09:06:12;;;;;;;23.73;15.95;;;;;;;1.99;100.00;100781.13;5050995;28;20105;-63
2022/03/03 09:08:37;;;;;;;20.73;15.38;;;;;;;2.02;100.00;100784.56;5051538;28;20108;-63
2022/03/03 09:11:03;;;;;;;24.02;15.63;;;;;;;2.09;100.00;100787.94;5050854;28;20452;-63
2022/03/03 09:13:28;;;;;;;29.42;16.63;;;;;;;2.18;100.00;100787.84;5050269;28;20025;-64
2022/03/03 09:15:53;;;;;;;23.80;16.70;;;;;;;2.26;100.00;100787.78;5050040;28;20142;-63
2022/03/03 09:18:19;;;;;;;24.63;16.50;;;;;;;2.33;100.00;100785.06;5050850;28;20032;-63
2022/03/03 09:20:44;;;;;;;25.98;14.45;;;;;;;2.46;100.00;100785.84;5047002;28;20095;-63
2022/03/03 09:23:10;;;;;;;21.70;15.45;;;;;;;2.62;100.00;100787.38;5049190;28;20051;-63
2022/03/03 09:25:39;;;;;;;28.45;15.45;;;;;;;2.75;100.00;100786.34;5047465;28;20068;-63
2022/03/03 09:28:07;;;;;;;25.92;15.55;;;;;;;2.78;100.00;100769.88;5053156;28;20102;-63
2022/03/03 09:30:33;;;;;;;24.20;15.23;;;;;;;2.90;100.00;100778.38;5054076;28;20031;-63
2022/03/03 09:32:59;;;;;;;22.83;14.73;;;;;;;3.19;100.00;100771.91;5053856;28;20392;-63
2022/03/03 09:35:26;;;;;;;26.15;14.35;;;;;;;3.36;100.00;100765.59;5053843;28;20032;-63
2022/03/03 09:37:51;;;;;;;23.55;14.50;;;;;;;3.49;100.00;100771.47;5054403;28;20083;-63
2022/03/03 09:40:17;;;;;;;23.02;13.43;;;;;;;3.57;100.00;100767.00;5053569;28;20383;-63
2022/03/03 09:42:57;;;;;;;22.70;12.70;;;;;;;3.65;100.00;100767.72;5053975;28;20067;-63
2022/03/03 09:45:22;;;;;;;20.17;13.50;;;;;;;3.75;100.00;100766.69;5047514;28;20416;-64
2022/03/03 09:47:50;;;;;;;20.60;13.88;;;;;;;3.83;100.00;100759.66;5044517;28;20024;-63
2022/03/03 09:50:15;;;;;;;19.48;13.32;;;;;;;3.88;100.00;100764.78;5030547;28;20112;-63
2022/03/03 09:52:42;;;;;;;19.95;12.35;;;;;;;3.98;100.00;100764.59;5016376;28;20097;-64
2022/03/03 09:55:08;;;;;;;19.92;13.05;;;;;;;4.10;100.00;100773.91;5018758;28;20060;-64
2022/03/03 09:57:35;;;;;;;15.90;11.30;;;;;;;4.21;100.00;100771.97;5016491;28;20040;-63
2022/03/03 10:00:03;;;;;;;20.27;11.20;;;;;;;4.28;100.00;100762.31;5022324;28;20812;-63
2022/03/03 10:02:29;;;;;;;29.65;12.85;;;;;;;4.30;100.00;100756.19;5033409;28;20028;-63
2022/03/03 10:04:55;;;;;;;19.10;11.65;;;;;;;4.22;100.00;100746.84;5042906;28;20035;-64
2022/03/03 10:07:23;;;;;;;17.98;11.82;;;;;;;4.32;100.00;100764.84;5045153;28;20495;-63
2022/03/03 10:10:02;;;;;;;16.17;11.80;;;;;;;4.27;100.00;100740.66;5030030;28;20942;-64
2022/03/03 10:12:28;;;;;;;18.00;12.60;;;;;;;4.40;100.00;100762.06;5036188;28;20033;-64
2022/03/03 10:15:00;;;;;;;17.10;11.02;;;;;;;4.47;100.00;100764.53;5025984;28;20029;-64
2022/03/03 10:17:38;;;;;;;16.38;10.88;;;;;;;4.55;100.00;100753.97;5036239;28;20933;-64
2022/03/03 10:20:05;;;;;;;17.75;11.38;;;;;;;4.73;100.00;100758.78;5035974;28;20082;-63
2022/03/03 10:22:46;;;;;;;13.77;10.70;;;;;;;4.83;100.00;100764.69;5034212;28;20042;-64
2022/03/03 10:25:13;;;;;;;15.88;11.23;;;;;;;4.90;100.00;100754.09;5028274;28;20127;-64
2022/03/03 10:27:39;;;;;;;16.88;10.98;;;;;;;5.07;100.00;100762.41;5035742;28;20032;-64
2022/03/03 10:30:07;;;;;;;15.85;11.40;;;;;;;5.18;100.00;100761.31;5035769;28;20025;-64
2022/03/03 10:32:35;;;;;;;16.25;12.02;;;;;;;5.26;100.00;100754.19;5029227;28;20787;-64
2022/03/03 10:35:14;;;;;;;15.43;10.63;;;;;;;5.39;100.00;100764.28;5035915;28;20029;-64
2022/03/03 10:37:42;;;;;;;26.67;12.15;;;;;;;5.51;100.00;100760.53;5037992;28;20041;-64
2022/03/03 10:40:11;;;;;;;17.17;10.77;;;;;;;5.61;100.00;100762.06;5032880;28;20055;-63
2022/03/03 10:42:37;;;;;;;22.67;11.07;;;;;;;5.64;100.00;100756.75;5052629;28;20025;-64
2022/03/03 10:45:16;;;;;;;17.67;11.00;;;;;;;5.73;100.00;100748.69;5039181;28;20025;-64
2022/03/03 10:47:46;;;;;;;24.30;11.43;;;;;;;5.86;100.00;100755.34;5038096;28;20052;-64
2022/03/03 10:50:12;;;;;;;18.00;10.55;;;;;;;6.02;100.00;100761.03;5037536;28;20025;-64
2022/03/03 10:52:40;;;;;;;16.85;10.38;;;;;;;6.14;100.00;100761.59;5039956;28;20029;-63
2022/03/03 10:55:13;;;;;;;17.85;10.68;;;;;;;6.32;100.00;100756.78;5036603;28;20159;-64
2022/03/03 10:57:41;;;;;;;15.50;10.10;;;;;;;6.44;99.01;100751.22;5031424;28;20036;-64
2022/03/03 11:00:16;;;;;;;16.27;9.32;;;;;;;6.54;98.24;100744.84;5033610;28;20029;-64
2022/03/03 11:02:44;;;;;;;12.18;9.45;;;;;;;6.70;96.35;100735.66;5034940;28;20923;-64